Time;durP1;ratioP1;P1;durP2;ratioP2;P2;SDS_P1;SDS_P2;PMS_P1;PMS_P2;Temp;Humidity;BMP_temperature;BMP_pressure;BME280_temperature;BME280_humidity;BME280_pressure;Samples;Min_cycle;Max_cycle;Signal;HPM_P1;HPM_P2
2022/01/18 00:00:15;;;;;;;7.65;5.25;;;5.40;99.90;;;;;;5014553;28;20183;-68
2022/01/18 00:02:41;;;;;;;6.38;5.53;;;5.30;99.90;;;;;;5013873;28;20201;-71
2022/01/18 00:05:14;;;;;;;6.15;5.55;;;5.40;99.90;;;;;;5013882;28;20670;-68
2022/01/18 00:07:41;;;;;;;7.57;5.70;;;5.30;99.90;;;;;;5013852;28;20211;-69
2022/01/18 00:10:07;;;;;;;8.90;4.93;;;5.30;99.90;;;;;;5013810;28;20191;-71
2022/01/18 00:15:30;;;;;;;8.68;5.70;;;5.20;99.90;;;;;;5013883;28;20199;-71
2022/01/18 00:23:13;;;;;;;5.13;4.55;;;5.10;99.90;;;;;;5013667;28;20236;-70
2022/01/18 00:25:42;;;;;;;10.57;6.80;;;5.10;99.90;;;;;;5013939;28;20196;-68
2022/01/18 00:28:08;;;;;;;7.10;5.85;;;5.10;99.90;;;;;;5013466;28;20406;-69
2022/01/18 00:35:43;;;;;;;6.95;5.45;;;5.20;99.90;;;;;;5014057;28;20633;-67
2022/01/18 00:38:51;;;;;;;6.18;4.80;;;5.30;99.90;;;;;;5013368;28;20195;-69
2022/01/18 00:40:58;;;;;;;5.40;4.20;;;5.30;99.90;;;;;;5015682;28;20182;-70
2022/01/18 00:43:24;;;;;;;8.48;5.60;;;5.30;99.90;;;;;;5013442;28;20363;-69
2022/01/18 00:45:51;;;;;;;7.53;5.97;;;5.30;99.90;;;;;;5015915;28;20711;-69
2022/01/18 00:48:17;;;;;;;11.00;6.15;;;5.30;99.90;;;;;;5017494;28;20186;-68
2022/01/18 00:50:48;;;;;;;9.10;5.63;;;5.30;99.90;;;;;;5017453;28;20268;-67
2022/01/18 00:53:16;;;;;;;8.00;5.45;;;5.30;99.90;;;;;;5017677;28;20169;-68
2022/01/18 00:55:53;;;;;;;8.50;5.53;;;5.30;99.90;;;;;;5017599;28;20259;-69
2022/01/18 00:58:19;;;;;;;7.13;6.43;;;5.20;99.90;;;;;;5016809;28;20244;-69
2022/01/18 01:00:44;;;;;;;14.40;7.17;;;5.20;99.90;;;;;;5017355;28;20258;-70
2022/01/18 01:03:10;;;;;;;4.73;3.90;;;5.10;99.90;;;;;;5015927;28;20193;-69
2022/01/18 01:05:36;;;;;;;13.00;4.67;;;5.10;99.90;;;;;;5017146;28;20195;-68
2022/01/18 01:08:02;;;;;;;8.67;5.70;;;5.00;99.90;;;;;;5016909;28;20255;-69
2022/01/18 01:10:28;;;;;;;5.97;5.40;;;5.10;99.90;;;;;;5017144;28;20184;-70
2022/01/18 01:12:55;;;;;;;7.70;5.55;;;5.10;99.90;;;;;;5017070;28;20159;-69
2022/01/18 01:15:23;;;;;;;10.52;6.97;;;5.10;99.90;;;;;;5017302;28;20233;-67
2022/01/18 01:18:14;;;;;;;10.95;6.10;;;5.00;99.90;;;;;;5016983;28;20519;-69
2022/01/18 01:44:55;;;;;;;9.68;6.18;;;5.10;99.90;;;;;;5016822;28;20210;-70
2022/01/18 01:47:23;;;;;;;11.88;5.35;;;5.20;99.90;;;;;;5016720;28;20170;-69
2022/01/18 01:49:51;;;;;;;7.82;5.20;;;5.10;99.90;;;;;;5015855;28;20558;-69
2022/01/18 01:52:20;;;;;;;9.10;6.32;;;5.20;99.90;;;;;;5016448;28;20193;-69
2022/01/18 01:54:45;;;;;;;9.60;6.18;;;5.20;99.90;;;;;;5016385;28;20184;-69
2022/01/18 01:57:11;;;;;;;11.23;5.50;;;5.20;99.90;;;;;;5015681;28;20171;-69
2022/01/18 01:59:37;;;;;;;13.10;8.27;;;5.20;99.90;;;;;;5015966;28;20423;-68
2022/01/18 02:02:04;;;;;;;11.87;5.90;;;5.20;99.90;;;;;;5016475;28;20650;-68
2022/01/18 02:04:29;;;;;;;15.65;7.30;;;5.20;99.90;;;;;;5016277;28;20234;-71
2022/01/18 02:06:55;;;;;;;8.03;7.00;;;5.20;99.90;;;;;;5016344;28;20250;-71
2022/01/18 02:09:21;;;;;;;12.90;6.97;;;5.20;99.90;;;;;;5016353;28;20416;-68
2022/01/18 02:11:47;;;;;;;9.60;5.70;;;5.20;99.90;;;;;;5016637;28;20179;-71
2022/01/18 02:14:19;;;;;;;11.47;7.43;;;5.20;99.90;;;;;;5016231;28;20167;-72
2022/01/18 02:22:14;;;;;;;10.90;6.03;;;5.20;99.90;;;;;;5015746;28;20181;-69
2022/01/18 02:24:40;;;;;;;8.50;6.50;;;5.30;99.90;;;;;;5016033;28;20199;-70
2022/01/18 02:27:06;;;;;;;14.25;7.43;;;5.30;99.90;;;;;;5015929;28;20180;-71
2022/01/18 02:29:32;;;;;;;6.93;4.93;;;5.20;99.90;;;;;;5015289;28;20191;-70
2022/01/18 02:31:57;;;;;;;17.93;8.40;;;5.20;99.90;;;;;;5015873;28;20742;-68
2022/01/18 02:34:24;;;;;;;11.90;6.40;;;5.20;99.90;;;;;;5015874;28;20170;-70
2022/01/18 02:36:53;;;;;;;9.68;6.30;;;5.20;99.90;;;;;;5015698;28;20222;-71
2022/01/18 02:39:21;;;;;;;12.77;6.68;;;5.20;99.90;;;;;;5015230;28;20261;-70
2022/01/18 02:42:06;;;;;;;10.70;6.43;;;5.10;99.90;;;;;;5015370;28;20580;-68
2022/01/18 02:44:33;;;;;;;12.13;6.63;;;5.10;99.90;;;;;;5015325;28;20277;-71
2022/01/18 02:46:59;;;;;;;10.95;6.78;;;5.10;99.90;;;;;;5015535;28;20172;-68
2022/01/18 02:49:27;;;;;;;8.88;5.60;;;5.10;99.90;;;;;;5014880;28;20650;-68
2022/01/18 02:51:53;;;;;;;10.82;7.00;;;5.20;99.90;;;;;;5014851;28;20189;-70
2022/01/18 02:54:19;;;;;;;7.75;6.00;;;5.20;99.90;;;;;;5013464;28;20250;-71
2022/01/18 02:56:51;;;;;;;10.75;7.57;;;5.10;99.90;;;;;;5015308;28;20167;-68
2022/01/18 02:59:30;;;;;;;8.73;7.43;;;5.10;99.90;;;;;;5014849;28;20552;-68
2022/01/18 03:04:42;;;;;;;9.02;5.22;;;5.20;99.90;;;;;;5015025;28;20236;-69
2022/01/18 03:07:08;;;;;;;10.63;7.15;;;5.20;99.90;;;;;;5014678;28;20688;-70
2022/01/18 03:09:35;;;;;;;14.50;8.48;;;5.30;99.90;;;;;;5014493;28;20188;-70
2022/01/18 03:12:01;;;;;;;9.25;7.13;;;5.30;99.90;;;;;;5015069;28;20176;-69
2022/01/18 03:14:27;;;;;;;8.02;5.88;;;5.30;99.90;;;;;;5015101;28;20167;-68
2022/01/18 03:16:53;;;;;;;12.03;7.00;;;5.40;99.90;;;;;;5014743;28;20237;-71
2022/01/18 03:19:18;;;;;;;7.30;6.43;;;5.30;99.90;;;;;;5014583;28;20298;-68
2022/01/18 03:21:44;;;;;;;12.57;8.03;;;5.30;99.90;;;;;;5014920;28;20692;-70
2022/01/18 03:24:30;;;;;;;7.80;4.60;;;5.30;99.90;;;;;;5015300;28;20155;-70
2022/01/18 03:29:41;;;;;;;11.65;6.38;;;5.30;99.90;;;;;;5014106;28;20252;-69
2022/01/18 03:32:07;;;;;;;10.90;7.40;;;5.30;99.90;;;;;;5014801;28;20568;-67
2022/01/18 03:34:33;;;;;;;8.30;7.25;;;5.30;99.90;;;;;;5014693;28;20391;-69
2022/01/18 03:36:59;;;;;;;10.23;6.47;;;5.30;99.90;;;;;;5014532;28;20250;-69
2022/01/18 03:39:24;;;;;;;10.33;5.80;;;5.30;99.90;;;;;;5014100;28;20789;-69
2022/01/18 03:41:55;;;;;;;10.27;7.50;;;5.30;99.90;;;;;;5013331;28;20178;-71
2022/01/18 03:44:24;;;;;;;7.55;5.70;;;5.30;99.90;;;;;;5014140;28;20166;-70
2022/01/18 03:46:52;;;;;;;9.25;6.22;;;5.30;99.90;;;;;;5013346;28;20166;-69
2022/01/18 03:49:20;;;;;;;13.05;6.07;;;5.30;99.90;;;;;;5013900;28;20197;-69
2022/01/18 03:51:45;;;;;;;10.35;6.90;;;5.30;99.90;;;;;;5013971;28;20190;-68
2022/01/18 03:54:13;;;;;;;12.13;7.80;;;5.30;99.90;;;;;;5014508;28;20622;-68
2022/01/18 03:56:39;;;;;;;8.48;5.85;;;5.30;99.90;;;;;;5014129;28;20168;-70
2022/01/18 03:59:05;;;;;;;8.83;6.53;;;5.30;99.90;;;;;;5013645;28;20306;-71
2022/01/18 04:01:32;;;;;;;10.30;6.77;;;5.30;99.90;;;;;;5013034;28;20202;-70
2022/01/18 04:03:57;;;;;;;6.75;6.03;;;5.30;99.90;;;;;;5014215;28;20167;-71
2022/01/18 04:06:23;;;;;;;10.80;7.77;;;5.40;99.90;;;;;;5014161;28;20215;-69
2022/01/18 04:08:48;;;;;;;11.07;5.90;;;5.40;99.90;;;;;;5013830;28;20559;-70
2022/01/18 04:11:14;;;;;;;11.20;8.47;;;5.40;99.90;;;;;;5014087;28;20257;-69
2022/01/18 04:13:40;;;;;;;9.50;7.17;;;5.40;99.90;;;;;;5014054;28;20188;-70
2022/01/18 04:16:05;;;;;;;9.40;5.93;;;5.30;99.90;;;;;;5014152;28;20653;-70
2022/01/18 04:18:50;;;;;;;8.10;7.30;;;5.30;99.90;;;;;;5014378;28;20210;-70
2022/01/18 04:29:11;;;;;;;10.83;6.57;;;5.30;99.90;;;;;;5013684;28;20188;-70
2022/01/18 04:31:37;;;;;;;8.07;5.55;;;5.40;99.90;;;;;;5013942;28;20216;-70
2022/01/18 04:34:03;;;;;;;11.65;7.20;;;5.30;99.90;;;;;;5013870;28;20160;-69
2022/01/18 04:36:29;;;;;;;13.17;6.27;;;5.40;99.90;;;;;;5013613;28;20170;-68
2022/01/18 04:38:55;;;;;;;10.23;6.63;;;5.40;99.90;;;;;;5011984;28;20529;-69
2022/01/18 04:41:27;;;;;;;9.70;6.55;;;5.40;99.90;;;;;;5012348;28;20747;-70
2022/01/18 04:49:06;;;;;;;7.60;6.57;;;5.20;99.90;;;;;;5013384;28;20194;-69
2022/01/18 04:51:32;;;;;;;10.35;6.13;;;5.20;99.90;;;;;;5013113;28;20183;-71
2022/01/18 04:54:00;;;;;;;6.10;4.68;;;5.20;99.90;;;;;;5013718;28;20567;-70
2022/01/18 04:59:07;;;;;;;14.20;7.43;;;5.30;99.90;;;;;;5013303;28;20349;-70
2022/01/18 05:01:34;;;;;;;12.00;7.03;;;5.20;99.90;;;;;;5013315;28;20225;-70
2022/01/18 05:04:00;;;;;;;12.82;8.48;;;5.20;99.90;;;;;;5013454;28;20719;-70
2022/01/18 05:06:25;;;;;;;14.13;7.97;;;5.30;99.90;;;;;;5013301;28;20202;-69
2022/01/18 05:08:51;;;;;;;10.13;6.07;;;5.20;99.90;;;;;;5013245;28;20249;-68
2022/01/18 05:11:20;;;;;;;16.00;7.77;;;5.20;99.90;;;;;;5013521;28;20171;-69
2022/01/18 05:21:33;;;;;;;11.45;8.25;;;5.20;99.90;;;;;;5012553;28;20181;-71
2022/01/18 05:23:59;;;;;;;9.15;5.43;;;5.20;99.90;;;;;;5013330;28;20171;-70
2022/01/18 05:26:26;;;;;;;9.18;5.93;;;5.20;99.90;;;;;;5012560;28;20204;-69
2022/01/18 05:28:51;;;;;;;9.18;7.10;;;5.20;99.90;;;;;;5012756;28;20195;-67
2022/01/18 05:31:18;;;;;;;13.20;7.00;;;5.20;99.90;;;;;;5015741;28;20170;-69
2022/01/18 05:33:46;;;;;;;12.75;7.43;;;5.30;99.90;;;;;;5016481;28;20439;-68
2022/01/18 05:36:12;;;;;;;10.35;7.95;;;5.10;99.90;;;;;;5016682;28;20190;-67
2022/01/18 05:38:39;;;;;;;15.15;6.82;;;5.00;99.90;;;;;;5016299;28;20650;-70
2022/01/18 05:41:06;;;;;;;10.63;6.47;;;5.00;99.90;;;;;;5016515;28;20637;-70
2022/01/18 05:43:33;;;;;;;9.35;6.28;;;5.00;99.90;;;;;;5016669;28;20192;-71
2022/01/18 05:45:59;;;;;;;11.32;8.10;;;5.00;99.90;;;;;;5016585;28;20191;-70
2022/01/18 05:48:24;;;;;;;12.60;7.65;;;5.00;99.90;;;;;;5015915;28;20172;-71
2022/01/18 05:50:51;;;;;;;13.10;7.27;;;5.00;99.90;;;;;;5016727;28;20192;-69
2022/01/18 05:53:17;;;;;;;11.15;7.00;;;4.90;99.90;;;;;;5016688;28;20221;-69
2022/01/18 05:55:43;;;;;;;12.37;7.47;;;5.00;99.90;;;;;;5016160;28;20176;-69
2022/01/18 05:58:08;;;;;;;10.30;7.80;;;5.00;99.90;;;;;;5015965;28;20288;-70
2022/01/18 06:00:37;;;;;;;11.60;5.87;;;4.90;99.90;;;;;;5016375;28;20229;-68
2022/01/18 06:03:11;;;;;;;11.25;6.90;;;5.00;99.90;;;;;;5016432;28;20622;-68
2022/01/18 06:08:22;;;;;;;14.05;7.35;;;5.00;99.90;;;;;;5016018;28;20549;-71
2022/01/18 06:10:48;;;;;;;14.03;6.67;;;5.00;99.90;;;;;;5015997;28;20171;-70
2022/01/18 06:13:14;;;;;;;12.40;6.90;;;5.00;99.90;;;;;;5016013;28;20454;-70
2022/01/18 06:15:40;;;;;;;12.13;7.75;;;5.00;99.90;;;;;;5015995;28;20270;-68
2022/01/18 06:18:05;;;;;;;18.30;8.57;;;5.00;99.90;;;;;;5015925;28;20256;-69
2022/01/18 06:20:32;;;;;;;14.77;8.23;;;4.90;99.90;;;;;;5015703;28;20219;-70
2022/01/18 06:22:58;;;;;;;12.38;7.72;;;4.90;99.90;;;;;;5015738;28;20169;-71
2022/01/18 06:25:24;;;;;;;9.37;6.53;;;5.00;99.90;;;;;;5015966;28;20684;-71
2022/01/18 06:27:51;;;;;;;16.50;6.53;;;4.90;99.90;;;;;;5016011;28;20912;-69
2022/01/18 06:30:18;;;;;;;12.73;7.97;;;4.90;99.90;;;;;;5015647;28;20183;-70
2022/01/18 06:32:44;;;;;;;15.52;7.60;;;4.90;99.90;;;;;;5015829;28;20196;-69
2022/01/18 06:35:11;;;;;;;15.70;7.47;;;4.80;99.90;;;;;;5015516;28;20203;-69
2022/01/18 06:37:37;;;;;;;11.70;7.45;;;4.80;99.90;;;;;;5015307;28;20163;-69
2022/01/18 06:40:05;;;;;;;11.32;7.28;;;4.80;99.90;;;;;;5015448;28;20202;-69
2022/01/18 06:42:31;;;;;;;15.95;7.47;;;4.80;99.90;;;;;;5014943;28;20193;-69
2022/01/18 06:44:57;;;;;;;15.63;8.88;;;4.70;99.90;;;;;;5016020;28;20198;-68
2022/01/18 06:47:23;;;;;;;22.73;10.63;;;4.80;99.90;;;;;;5015399;28;20164;-69
2022/01/18 06:49:49;;;;;;;14.73;7.68;;;4.80;99.90;;;;;;5014675;28;20442;-70
2022/01/18 06:52:15;;;;;;;14.67;8.30;;;4.70;99.90;;;;;;5015410;28;20616;-69
2022/01/18 06:54:40;;;;;;;12.20;8.40;;;4.70;99.90;;;;;;5015454;28;20147;-69
2022/01/18 06:57:06;;;;;;;11.33;7.63;;;4.80;99.90;;;;;;5015605;28;20174;-69
2022/01/18 06:59:34;;;;;;;20.60;9.10;;;4.70;99.90;;;;;;5014908;28;20212;-70
2022/01/18 07:02:00;;;;;;;18.00;9.02;;;4.80;99.90;;;;;;5015366;28;20959;-70
2022/01/18 07:04:26;;;;;;;15.00;7.90;;;4.80;99.90;;;;;;5015398;28;20163;-70
2022/01/18 07:06:51;;;;;;;12.80;9.90;;;4.80;99.90;;;;;;5014996;28;20908;-71
2022/01/18 07:09:22;;;;;;;15.20;9.43;;;4.80;99.90;;;;;;5014882;28;20483;-71
2022/01/18 07:11:49;;;;;;;11.35;7.70;;;4.80;99.90;;;;;;5015485;28;20254;-70
2022/01/18 07:14:15;;;;;;;16.85;9.98;;;4.80;99.90;;;;;;5016051;28;20186;-71
2022/01/18 07:16:41;;;;;;;18.30;11.23;;;4.80;99.90;;;;;;5013714;28;20179;-70
2022/01/18 07:19:07;;;;;;;11.93;8.03;;;4.80;99.90;;;;;;5013931;28;20209;-71
2022/01/18 07:21:32;;;;;;;15.97;9.13;;;4.80;99.90;;;;;;5015872;28;20186;-71
2022/01/18 07:24:04;;;;;;;13.90;9.33;;;4.80;99.90;;;;;;5015955;28;20661;-69
2022/01/18 07:26:31;;;;;;;15.13;8.18;;;4.80;99.90;;;;;;5033617;28;20561;-68
2022/01/18 07:28:57;;;;;;;13.52;8.73;;;4.70;99.90;;;;;;5021834;28;20187;-69
2022/01/18 07:31:23;;;;;;;15.40;8.33;;;4.70;99.90;;;;;;5013984;28;20181;-70
2022/01/18 07:33:48;;;;;;;13.77;10.00;;;4.70;99.90;;;;;;5014548;28;20530;-69
2022/01/18 07:36:14;;;;;;;12.80;8.87;;;4.70;99.90;;;;;;5014545;28;20305;-69
2022/01/18 07:38:40;;;;;;;15.20;8.93;;;4.70;99.90;;;;;;5013866;28;21018;-68
2022/01/18 07:41:05;;;;;;;13.33;9.10;;;4.70;99.90;;;;;;5014028;28;20281;-69
2022/01/18 07:43:31;;;;;;;16.70;8.87;;;4.70;99.90;;;;;;5014476;28;20547;-71
2022/01/18 07:45:57;;;;;;;10.53;8.47;;;4.70;99.90;;;;;;5013991;28;20277;-71
2022/01/18 07:48:23;;;;;;;16.87;7.90;;;4.70;99.90;;;;;;5013792;28;20720;-68
2022/01/18 07:50:51;;;;;;;13.77;7.60;;;4.70;99.90;;;;;;5012864;28;20281;-69
2022/01/18 07:53:18;;;;;;;22.92;8.90;;;4.80;99.90;;;;;;5012844;28;20254;-68
2022/01/18 07:55:44;;;;;;;21.70;9.85;;;4.90;99.90;;;;;;5014004;28;20540;-70
2022/01/18 07:58:09;;;;;;;14.23;9.00;;;5.00;99.90;;;;;;5012255;28;20174;-69
2022/01/18 08:00:35;;;;;;;15.60;9.00;;;5.10;99.90;;;;;;5014002;28;20219;-70
2022/01/18 08:03:01;;;;;;;15.43;10.25;;;5.10;99.90;;;;;;5014231;28;20171;-70
2022/01/18 08:05:27;;;;;;;14.10;8.57;;;5.10;99.90;;;;;;5013872;28;20207;-71
2022/01/18 08:07:53;;;;;;;20.63;11.20;;;5.20;99.90;;;;;;5013833;28;20465;-70
2022/01/18 08:10:18;;;;;;;7.80;6.77;;;5.30;99.90;;;;;;5013957;28;20216;-68
2022/01/18 08:12:45;;;;;;;31.13;9.43;;;5.30;99.90;;;;;;5013614;28;20179;-69
2022/01/18 08:15:15;;;;;;;16.70;8.60;;;5.40;99.90;;;;;;5013945;28;20199;-70
2022/01/18 08:17:42;;;;;;;12.77;9.27;;;5.40;99.90;;;;;;5013398;28;20255;-70
2022/01/18 08:20:13;;;;;;;20.10;8.90;;;5.30;99.90;;;;;;5014032;28;20562;-71
2022/01/18 08:22:45;;;;;;;15.50;8.75;;;5.30;99.90;;;;;;5013396;28;20206;-70
2022/01/18 08:25:13;;;;;;;19.10;9.95;;;5.40;99.90;;;;;;5013631;28;20665;-71
2022/01/18 08:27:39;;;;;;;18.42;9.68;;;5.40;99.90;;;;;;5013612;28;20184;-70
2022/01/18 08:30:07;;;;;;;13.13;9.60;;;5.50;99.90;;;;;;5013560;28;20196;-70
2022/01/18 08:32:33;;;;;;;16.30;9.13;;;5.80;99.90;;;;;;5012114;28;20182;-69
2022/01/18 08:34:59;;;;;;;12.35;7.05;;;6.30;99.90;;;;;;5013675;28;20544;-69
2022/01/18 08:37:24;;;;;;;11.27;8.00;;;6.80;99.90;;;;;;5013271;28;20182;-70
2022/01/18 08:39:50;;;;;;;9.07;7.97;;;7.30;99.90;;;;;;5011547;28;20197;-70
2022/01/18 08:42:16;;;;;;;15.47;8.87;;;7.90;99.90;;;;;;5013396;28;20253;-69
2022/01/18 08:44:43;;;;;;;12.03;8.40;;;8.60;99.90;;;;;;5013308;28;20229;-67
2022/01/18 08:47:13;;;;;;;12.63;6.90;;;9.20;99.90;;;;;;5013613;28;20223;-69
2022/01/18 08:49:39;;;;;;;11.83;6.23;;;9.80;99.90;;;;;;5012809;28;20502;-69
2022/01/18 08:52:05;;;;;;;12.43;8.70;;;10.30;99.90;;;;;;5013379;28;20421;-71
2022/01/18 08:54:31;;;;;;;14.73;8.80;;;10.90;99.90;;;;;;5013249;28;20942;-70
2022/01/18 08:56:57;;;;;;;12.77;8.07;;;11.20;99.90;;;;;;5013517;28;20375;-69
2022/01/18 08:59:23;;;;;;;9.97;7.37;;;11.60;99.90;;;;;;5012883;28;20403;-68
2022/01/18 09:01:50;;;;;;;11.03;8.03;;;12.00;99.90;;;;;;5013142;28;20245;-71
2022/01/18 09:04:15;;;;;;;11.80;7.77;;;12.00;99.90;;;;;;5011906;28;20945;-68
2022/01/18 09:06:41;;;;;;;9.70;6.13;;;12.30;99.90;;;;;;5016617;28;20435;-68
2022/01/18 09:09:08;;;;;;;8.10;5.63;;;12.40;99.90;;;;;;5016918;28;20191;-67
2022/01/18 09:11:35;;;;;;;8.87;6.40;;;12.10;99.90;;;;;;5017163;28;20171;-69
2022/01/18 09:14:01;;;;;;;8.37;6.00;;;11.80;99.90;;;;;;5016310;28;20419;-71
2022/01/18 09:16:26;;;;;;;12.40;6.70;;;11.40;99.90;;;;;;5032457;28;20970;-69
2022/01/18 09:18:52;;;;;;;9.60;6.50;;;11.10;99.90;;;;;;5016960;28;20186;-66
2022/01/18 09:21:18;;;;;;;13.10;6.60;;;11.10;99.90;;;;;;5017075;28;20171;-68
2022/01/18 09:23:44;;;;;;;8.70;6.60;;;11.30;99.90;;;;;;5016950;28;20625;-69
2022/01/18 09:26:13;;;;;;;10.20;7.50;;;11.60;99.90;;;;;;5017346;28;20836;-69
2022/01/18 09:28:39;;;;;;;8.70;6.27;;;11.70;99.90;;;;;;5015804;28;20458;-70
2022/01/18 09:31:05;;;;;;;9.70;6.10;;;11.80;99.90;;;;;;5017738;28;20879;-66
2022/01/18 09:33:31;;;;;;;10.50;6.43;;;11.60;99.90;;;;;;5017690;28;20434;-69
2022/01/18 09:35:56;;;;;;;11.53;6.73;;;11.20;99.90;;;;;;5017310;28;20253;-69
2022/01/18 09:38:22;;;;;;;7.60;6.20;;;11.00;99.90;;;;;;5020879;28;20163;-69
2022/01/18 09:40:49;;;;;;;11.80;7.53;;;11.30;99.90;;;;;;5023952;28;20191;-70
2022/01/18 09:43:16;;;;;;;10.53;6.27;;;11.90;99.90;;;;;;5019097;28;20178;-71
2022/01/18 09:45:44;;;;;;;11.83;7.67;;;12.50;99.90;;;;;;5016946;28;20431;-71
2022/01/18 09:48:12;;;;;;;7.00;5.93;;;13.10;99.90;;;;;;5017897;28;20484;-71
2022/01/18 09:50:39;;;;;;;8.57;5.83;;;13.60;99.90;;;;;;5017059;28;20412;-68
2022/01/18 09:53:08;;;;;;;8.20;5.97;;;13.90;99.30;;;;;;5016397;28;20481;-69
2022/01/18 09:55:36;;;;;;;7.80;6.13;;;14.20;99.90;;;;;;5016222;28;20432;-71
2022/01/18 09:58:06;;;;;;;6.13;4.67;;;14.70;98.80;;;;;;5014612;28;20950;-70
2022/01/18 10:00:32;;;;;;;6.67;5.67;;;15.20;97.60;;;;;;5016296;28;20761;-69
2022/01/18 10:02:59;;;;;;;8.10;7.20;;;15.30;96.70;;;;;;5016236;28;20479;-70
2022/01/18 10:05:27;;;;;;;10.00;6.40;;;15.40;97.00;;;;;;5016168;28;20502;-71
2022/01/18 10:08:06;;;;;;;7.60;5.13;;;15.50;96.30;;;;;;5015834;28;20404;-67
2022/01/18 10:10:38;;;;;;;7.90;5.23;;;15.00;95.70;;;;;;5014433;28;21580;-69
2022/01/18 10:13:04;;;;;;;9.00;5.50;;;14.80;95.70;;;;;;5015975;28;20465;-70
2022/01/18 10:15:30;;;;;;;11.60;6.50;;;14.20;95.90;;;;;;5016063;28;20388;-71
2022/01/18 10:18:04;;;;;;;7.23;5.17;;;13.60;96.60;;;;;;5014064;28;20470;-70
2022/01/18 10:20:30;;;;;;;6.07;4.90;;;13.10;98.20;;;;;;5015415;28;20664;-68
2022/01/18 10:22:55;;;;;;;8.47;6.53;;;13.00;99.40;;;;;;5015518;28;20421;-69
2022/01/18 10:25:24;;;;;;;9.33;6.43;;;13.20;99.10;;;;;;5016230;28;20684;-71
2022/01/18 10:27:53;;;;;;;5.93;5.20;;;13.20;98.60;;;;;;5015269;28;20198;-69
2022/01/18 10:33:26;;;;;;;9.10;5.73;;;13.50;98.20;;;;;;5013626;28;20507;-69
2022/01/18 10:36:12;;;;;;;6.63;5.40;;;13.60;97.60;;;;;;5002954;28;20504;-70
2022/01/18 10:38:39;;;;;;;5.90;4.93;;;13.60;98.00;;;;;;5013898;28;20447;-72
2022/01/18 10:41:28;;;;;;;7.90;5.07;;;13.40;97.50;;;;;;5015682;28;20858;-70
2022/01/18 10:44:07;;;;;;;8.93;6.40;;;13.00;97.90;;;;;;5015635;28;20490;-69
2022/01/18 10:46:38;;;;;;;7.60;5.27;;;12.60;97.90;;;;;;5015437;28;20607;-71
2022/01/18 10:49:04;;;;;;;8.27;5.13;;;12.30;98.60;;;;;;5014833;28;20837;-69
2022/01/18 10:51:33;;;;;;;8.67;4.33;;;11.90;99.30;;;;;;5014754;28;20495;-72
2022/01/18 10:54:01;;;;;;;8.60;5.80;;;11.80;99.60;;;;;;5015089;28;20755;-69
2022/01/18 10:56:45;;;;;;;10.10;5.47;;;12.00;99.70;;;;;;5015290;28;20377;-70
2022/01/18 10:59:21;;;;;;;5.10;4.10;;;12.10;99.90;;;;;;5014800;28;20430;-68
2022/01/18 11:02:13;;;;;;;7.30;4.97;;;11.80;99.20;;;;;;5014893;28;20441;-70
2022/01/18 11:04:44;;;;;;;8.07;4.77;;;11.60;99.70;;;;;;5014883;28;20430;-70
2022/01/18 11:07:11;;;;;;;8.47;6.33;;;11.10;99.90;;;;;;5014876;28;20753;-70
2022/01/18 11:09:37;;;;;;;8.43;4.60;;;10.70;99.90;;;;;;5002837;28;20760;-71
2022/01/18 11:12:05;;;;;;;4.27;3.53;;;10.40;99.90;;;;;;4995277;28;20385;-69
2022/01/18 11:14:32;;;;;;;5.17;3.87;;;10.20;99.90;;;;;;4995360;28;20427;-72
2022/01/18 11:16:59;;;;;;;10.20;4.60;;;10.10;99.90;;;;;;4993823;28;20402;-69
2022/01/18 11:21:53;;;;;;;5.25;3.03;;;9.50;99.90;;;;;;5014882;28;20411;-71
2022/01/18 11:24:20;;;;;;;11.80;5.13;;;9.10;99.90;;;;;;5014849;28;20168;-68
2022/01/18 11:26:48;;;;;;;4.50;3.13;;;8.90;99.90;;;;;;5014618;28;20473;-73
2022/01/18 11:29:17;;;;;;;5.57;2.97;;;8.70;99.90;;;;;;5013675;28;20182;-67
2022/01/18 11:31:50;;;;;;;4.90;2.28;;;8.50;99.90;;;;;;5014170;28;20182;-69
2022/01/18 11:34:55;;;;;;;7.80;4.07;;;8.10;99.90;;;;;;5014115;28;20167;-70
2022/01/18 11:37:30;;;;;;;3.13;2.70;;;7.90;99.90;;;;;;5013816;28;20198;-68
2022/01/18 11:40:01;;;;;;;5.05;3.63;;;7.80;99.90;;;;;;5012824;28;20244;-72
2022/01/18 11:42:55;;;;;;;2.88;2.28;;;7.70;99.90;;;;;;5014598;28;20778;-65
2022/01/18 11:45:32;;;;;;;2.50;2.30;;;7.60;99.90;;;;;;5013706;28;20206;-69
2022/01/18 11:47:58;;;;;;;4.05;2.45;;;7.50;99.90;;;;;;5012341;28;20185;-68
2022/01/18 11:50:28;;;;;;;6.67;2.80;;;7.50;99.90;;;;;;5013696;28;20210;-66
2022/01/18 11:53:22;;;;;;;3.20;3.00;;;7.50;99.90;;;;;;5014044;28;20253;-65
2022/01/18 11:55:48;;;;;;;3.95;2.92;;;7.70;99.90;;;;;;5013968;28;20717;-66
2022/01/18 11:58:14;;;;;;;4.00;2.38;;;7.90;99.90;;;;;;5013714;28;20225;-68
2022/01/18 12:00:56;;;;;;;4.63;2.73;;;7.90;99.90;;;;;;5013473;28;20518;-68
2022/01/18 12:03:27;;;;;;;1.52;1.42;;;8.00;99.90;;;;;;5013997;28;20175;-68
2022/01/18 12:05:58;;;;;;;3.33;2.92;;;7.90;99.90;;;;;;5013921;28;20194;-67
2022/01/18 12:08:31;;;;;;;2.33;2.13;;;7.70;99.90;;;;;;5013264;28;20194;-67
2022/01/18 12:10:58;;;;;;;3.80;3.42;;;7.60;99.90;;;;;;5011993;28;20591;-67
2022/01/18 12:13:30;;;;;;;3.58;2.40;;;7.50;99.90;;;;;;5028607;28;20236;-69
2022/01/18 12:15:58;;;;;;;2.97;1.77;;;7.40;99.90;;;;;;5013908;28;20163;-69
2022/01/18 12:18:29;;;;;;;2.83;2.38;;;7.30;99.90;;;;;;5013171;28;20258;-69
2022/01/18 12:21:01;;;;;;;3.22;2.33;;;7.20;99.90;;;;;;5013845;28;20197;-68
2022/01/18 12:23:32;;;;;;;2.45;1.60;;;7.10;99.90;;;;;;5013479;28;20174;-67
2022/01/18 12:26:21;;;;;;;3.70;2.25;;;6.90;99.90;;;;;;5013199;28;20556;-67
2022/01/18 12:34:33;;;;;;;2.75;2.22;;;7.00;99.90;;;;;;5013416;28;20298;-68
2022/01/18 12:45:10;;;;;;;2.22;2.03;;;6.90;99.90;;;;;;5025769;28;20281;-69
2022/01/18 12:47:52;;;;;;;1.95;1.85;;;6.70;99.90;;;;;;5013474;28;20642;-68
2022/01/18 12:50:26;;;;;;;3.85;1.90;;;6.60;99.90;;;;;;5012608;28;20246;-68
2022/01/18 12:53:16;;;;;;;3.00;2.55;;;6.60;99.90;;;;;;5013257;28;20536;-69
2022/01/18 12:55:46;;;;;;;2.85;1.30;;;6.60;99.90;;;;;;5013461;28;20179;-66
2022/01/18 12:58:19;;;;;;;1.55;1.13;;;6.70;99.90;;;;;;5012442;28;20538;-66
2022/01/18 13:00:47;;;;;;;3.53;1.70;;;6.80;99.90;;;;;;5013372;28;20208;-67
2022/01/18 13:03:22;;;;;;;3.40;1.40;;;6.90;99.90;;;;;;5012340;28;20174;-70
2022/01/18 13:05:51;;;;;;;1.73;1.63;;;6.90;99.90;;;;;;4993683;28;20553;-68
2022/01/18 13:08:19;;;;;;;1.15;0.80;;;6.90;99.90;;;;;;4992598;28;20221;-69
2022/01/18 13:10:47;;;;;;;2.75;1.67;;;6.90;99.90;;;;;;4993879;28;20705;-68
2022/01/18 13:13:16;;;;;;;5.88;2.08;;;6.90;99.90;;;;;;4993715;28;20541;-68
2022/01/18 13:26:41;;;;;;;4.18;2.03;;;7.50;99.90;;;;;;5013275;28;20199;-69
2022/01/18 13:29:23;;;;;;;1.52;1.42;;;7.70;99.90;;;;;;5012561;28;20189;-71
2022/01/18 13:32:15;;;;;;;1.95;1.40;;;7.90;99.90;;;;;;5013171;28;20201;-70
2022/01/18 13:34:42;;;;;;;3.97;2.58;;;7.80;99.90;;;;;;5013114;28;20159;-70
2022/01/18 13:37:15;;;;;;;2.88;1.42;;;7.60;99.90;;;;;;5011646;28;20175;-73
2022/01/18 13:39:50;;;;;;;1.48;1.38;;;7.50;99.90;;;;;;5012664;28;20286;-72
2022/01/18 13:42:22;;;;;;;2.30;1.15;;;7.40;99.90;;;;;;5013189;28;20582;-71
2022/01/18 13:45:13;;;;;;;1.95;0.85;;;7.50;99.90;;;;;;5012708;28;20164;-72
2022/01/18 13:47:41;;;;;;;2.08;1.30;;;7.40;99.90;;;;;;5012595;28;20170;-71
2022/01/18 13:50:26;;;;;;;1.10;1.00;;;7.40;99.90;;;;;;5012851;28;20199;-70
2022/01/18 13:53:06;;;;;;;0.60;0.60;;;7.30;99.90;;;;;;5016025;28;20177;-70
2022/01/18 13:55:33;;;;;;;1.00;1.00;;;7.20;99.90;;;;;;5015204;28;20185;-71
2022/01/18 13:58:00;;;;;;;0.80;0.80;;;7.30;99.90;;;;;;5016127;28;20650;-72
2022/01/18 14:00:28;;;;;;;1.05;1.05;;;7.30;99.90;;;;;;5016299;28;20249;-71
2022/01/18 14:02:55;;;;;;;1.30;0.70;;;7.20;99.90;;;;;;5016284;28;20170;-72
2022/01/18 14:05:23;;;;;;;1.55;0.85;;;7.20;99.90;;;;;;5016217;28;20623;-72
2022/01/18 14:07:49;;;;;;;3.55;0.82;;;7.30;99.90;;;;;;5015773;28;20547;-72
2022/01/18 14:10:20;;;;;;;0.80;0.80;;;7.30;99.90;;;;;;5015929;28;20191;-71
2022/01/18 14:12:46;;;;;;;1.05;0.80;;;7.20;99.90;;;;;;5016102;28;20162;-71
2022/01/18 14:15:11;;;;;;;0.83;0.73;;;7.30;99.90;;;;;;5016063;28;20223;-71
2022/01/18 14:17:37;;;;;;;0.77;0.77;;;7.30;99.90;;;;;;5015768;28;20181;-73
2022/01/18 14:20:13;;;;;;;2.15;1.10;;;7.30;99.90;;;;;;5015894;28;20557;-71
2022/01/18 14:22:39;;;;;;;2.08;1.77;;;7.40;99.90;;;;;;5015863;28;20344;-72
2022/01/18 14:25:07;;;;;;;1.00;0.70;;;7.50;99.90;;;;;;5015650;28;20208;-70
2022/01/18 14:27:38;;;;;;;1.10;1.00;;;7.60;99.90;;;;;;5015519;28;20249;-71
2022/01/18 14:30:09;;;;;;;1.35;1.25;;;7.70;99.90;;;;;;5015724;28;20188;-71
2022/01/18 14:32:44;;;;;;;1.88;0.90;;;7.80;99.90;;;;;;5015594;28;20225;-70
2022/01/18 14:35:23;;;;;;;1.63;1.48;;;7.90;99.90;;;;;;5014414;28;20197;-70
2022/01/18 14:38:01;;;;;;;1.25;0.90;;;7.90;99.90;;;;;;5015080;28;20629;-73
2022/01/18 14:40:29;;;;;;;1.13;0.88;;;7.80;99.90;;;;;;5015400;28;20544;-69
2022/01/18 14:43:05;;;;;;;0.85;0.85;;;7.80;99.90;;;;;;5015508;28;20197;-73